Time;durP1;ratioP1;P1;durP2;ratioP2;P2;SDS_P1;SDS_P2;PMS_P1;PMS_P2;Temp;Humidity;BMP_temperature;BMP_pressure;BME280_temperature;BME280_humidity;BME280_pressure;Samples;Min_cycle;Max_cycle;Signal;HPM_P1;HPM_P2
2023/01/03 00:01:23;;;;;;;4.85;1.30;;;5.30;99.90;;;;;;5072953;28;20072;-65
2023/01/03 00:03:51;;;;;;;8.55;1.38;;;5.30;99.90;;;;;;5072538;28;20033;-65
2023/01/03 00:06:20;;;;;;;5.55;1.10;;;5.30;99.90;;;;;;5071987;28;20039;-65
2023/01/03 00:08:47;;;;;;;10.18;1.38;;;5.30;99.90;;;;;;5054754;28;20086;-65
2023/01/03 00:11:15;;;;;;;8.05;1.77;;;5.30;99.90;;;;;;5072601;28;20043;-65
2023/01/03 00:13:41;;;;;;;5.95;1.95;;;5.30;99.90;;;;;;5037745;28;20485;-65
2023/01/03 00:16:18;;;;;;;4.63;1.35;;;5.30;99.90;;;;;;5054847;28;20401;-65
2023/01/03 00:18:44;;;;;;;6.88;1.85;;;5.30;99.90;;;;;;5037940;28;20040;-65
2023/01/03 00:21:10;;;;;;;6.70;1.77;;;5.20;99.90;;;;;;5071255;28;20040;-65
2023/01/03 00:23:36;;;;;;;6.88;1.95;;;5.20;99.90;;;;;;5038440;28;20047;-65
2023/01/03 00:26:10;;;;;;;4.97;1.52;;;5.30;99.90;;;;;;5054453;28;20064;-65
2023/01/03 00:28:36;;;;;;;6.63;1.45;;;5.30;99.90;;;;;;5071787;28;20393;-65
2023/01/03 00:31:09;;;;;;;9.32;1.83;;;5.30;99.90;;;;;;5054721;28;20051;-65
2023/01/03 00:33:39;;;;;;;5.40;1.75;;;5.30;99.90;;;;;;5072689;28;20047;-65
2023/01/03 00:36:07;;;;;;;8.38;1.88;;;5.30;99.90;;;;;;5053410;28;20098;-65
2023/01/03 00:38:34;;;;;;;6.65;1.77;;;5.30;99.90;;;;;;5055144;28;20467;-65
2023/01/03 00:41:04;;;;;;;7.20;2.00;;;5.20;99.90;;;;;;5072248;28;20044;-65
2023/01/03 00:43:30;;;;;;;4.95;1.80;;;5.30;99.90;;;;;;5054823;28;20054;-65
2023/01/03 00:45:56;;;;;;;8.45;1.80;;;5.20;99.90;;;;;;5037742;28;20036;-65
2023/01/03 00:48:22;;;;;;;6.22;1.48;;;5.20;99.90;;;;;;5071103;28;20528;-65
2023/01/03 00:50:48;;;;;;;10.57;1.60;;;5.20;99.90;;;;;;5054331;28;20036;-65
2023/01/03 00:53:13;;;;;;;5.15;1.50;;;5.20;99.90;;;;;;5070871;28;20068;-65
2023/01/03 00:55:39;;;;;;;6.93;1.63;;;5.20;99.90;;;;;;5070310;28;20072;-65
2023/01/03 00:58:05;;;;;;;6.97;1.75;;;5.20;99.90;;;;;;5071831;28;20040;-65
2023/01/03 01:00:30;;;;;;;7.93;1.70;;;5.20;99.90;;;;;;5070698;28;20478;-65
2023/01/03 01:02:56;;;;;;;7.82;2.25;;;5.20;99.90;;;;;;5070800;28;20044;-65
2023/01/03 01:05:22;;;;;;;7.45;1.63;;;5.20;99.90;;;;;;5070566;28;20045;-65
2023/01/03 01:07:47;;;;;;;7.43;1.85;;;5.10;99.90;;;;;;5071919;28;20040;-65
2023/01/03 01:10:13;;;;;;;5.07;1.42;;;5.10;99.90;;;;;;5070972;28;20041;-65
2023/01/03 01:12:39;;;;;;;5.60;1.25;;;5.10;99.90;;;;;;5070753;28;20036;-65
2023/01/03 01:15:05;;;;;;;6.32;1.48;;;5.10;99.90;;;;;;5070680;28;20051;-65
2023/01/03 01:17:31;;;;;;;6.88;1.63;;;5.10;99.90;;;;;;5053396;28;20197;-65
2023/01/03 01:19:56;;;;;;;8.18;1.80;;;5.10;99.90;;;;;;5071873;28;20104;-65
2023/01/03 01:22:22;;;;;;;7.38;1.88;;;5.10;99.90;;;;;;5037026;28;20051;-65
2023/01/03 01:24:48;;;;;;;5.13;1.73;;;5.10;99.90;;;;;;5070848;28;20039;-65
2023/01/03 01:27:13;;;;;;;5.80;1.83;;;5.10;99.90;;;;;;5071467;28;20071;-65
2023/01/03 01:29:39;;;;;;;7.40;1.95;;;5.10;99.90;;;;;;5070726;28;20041;-64
2023/01/03 01:32:05;;;;;;;9.05;2.05;;;5.10;99.90;;;;;;5053206;28;20389;-65
2023/01/03 01:34:31;;;;;;;4.15;1.73;;;5.10;99.90;;;;;;5057940;28;20044;-65
2023/01/03 01:36:57;;;;;;;8.15;1.70;;;5.10;99.90;;;;;;5058130;28;20040;-65
2023/01/03 01:39:25;;;;;;;4.72;1.80;;;5.10;99.90;;;;;;5056815;28;20128;-65
2023/01/03 01:44:45;;;;;;;7.20;2.00;;;5.10;99.90;;;;;;5056940;28;20090;-64
2023/01/03 01:47:32;;;;;;;9.68;2.70;;;5.10;99.90;;;;;;5075578;28;20123;-65
2023/01/03 01:50:18;;;;;;;6.72;1.80;;;5.10;99.90;;;;;;5075469;28;20420;-64
2023/01/03 01:52:59;;;;;;;7.50;2.00;;;5.00;99.90;;;;;;5055943;28;20083;-65
2023/01/03 01:55:42;;;;;;;6.47;1.90;;;5.10;99.90;;;;;;5074125;28;20040;-65
2023/01/03 01:58:09;;;;;;;8.63;1.90;;;5.00;99.90;;;;;;5075362;28;20063;-65
2023/01/03 02:00:36;;;;;;;6.88;1.70;;;5.00;99.90;;;;;;5056598;28;20132;-65
2023/01/03 02:03:02;;;;;;;4.78;1.65;;;5.00;99.90;;;;;;5057586;28;20072;-65
2023/01/03 02:05:30;;;;;;;7.55;2.03;;;4.90;99.90;;;;;;5074553;28;20040;-65
2023/01/03 02:07:58;;;;;;;6.72;1.85;;;4.90;99.90;;;;;;5057129;28;20079;-65
2023/01/03 02:10:55;;;;;;;7.05;1.80;;;4.80;99.90;;;;;;5057187;28;20105;-65
2023/01/03 02:13:47;;;;;;;5.57;1.88;;;4.80;99.90;;;;;;5050623;28;20060;-65
2023/01/03 02:16:50;;;;;;;7.45;2.00;;;4.70;99.90;;;;;;5053240;28;20122;-65
2023/01/03 02:19:59;;;;;;;5.32;2.00;;;4.70;99.90;;;;;;5056819;28;20094;-65
2023/01/03 02:22:43;;;;;;;8.57;1.83;;;4.60;99.90;;;;;;5074831;28;20169;-64
2023/01/03 02:25:24;;;;;;;5.75;2.05;;;4.50;99.90;;;;;;5040179;28;20123;-65
2023/01/03 02:28:11;;;;;;;4.13;1.50;;;4.50;99.90;;;;;;5072737;28;20052;-65
2023/01/03 02:30:47;;;;;;;7.00;1.73;;;4.40;99.90;;;;;;5073531;28;20040;-65
2023/01/03 02:33:35;;;;;;;5.47;1.50;;;4.30;99.90;;;;;;5056770;28;20123;-65
2023/01/03 02:36:07;;;;;;;12.48;2.15;;;4.30;99.90;;;;;;5056796;28;20097;-65
2023/01/03 02:38:43;;;;;;;7.55;1.80;;;4.20;99.90;;;;;;5056802;28;20052;-65
2023/01/03 02:41:38;;;;;;;6.22;2.60;;;4.20;99.90;;;;;;5055846;28;20052;-65
2023/01/03 02:44:24;;;;;;;7.60;2.97;;;4.10;99.90;;;;;;5038435;28;20059;-65
2023/01/03 02:46:57;;;;;;;4.85;2.05;;;4.10;99.90;;;;;;5056393;28;20036;-65
2023/01/03 02:49:28;;;;;;;7.97;2.25;;;4.00;99.90;;;;;;5055674;28;20041;-65
2023/01/03 02:51:58;;;;;;;5.50;2.08;;;4.00;99.90;;;;;;5073303;28;20427;-65
2023/01/03 02:54:31;;;;;;;8.75;2.05;;;4.00;99.90;;;;;;5074230;28;20045;-65
2023/01/03 02:57:05;;;;;;;6.80;2.08;;;3.90;99.90;;;;;;5055600;28;20550;-65
2023/01/03 02:59:57;;;;;;;5.85;1.88;;;3.90;99.90;;;;;;5056196;28;20119;-65
2023/01/03 03:02:27;;;;;;;4.38;1.92;;;3.90;99.90;;;;;;5037170;28;20052;-65
2023/01/03 03:04:56;;;;;;;5.82;1.83;;;3.90;99.90;;;;;;5039540;28;20074;-65
2023/01/03 03:07:31;;;;;;;6.93;2.45;;;3.80;99.90;;;;;;5073851;28;20553;-65
2023/01/03 03:15:53;;;;;;;6.18;2.05;;;3.70;99.90;;;;;;5056074;28;20123;-65
2023/01/03 03:18:25;;;;;;;5.68;2.00;;;3.70;99.90;;;;;;5073835;28;20044;-65
2023/01/03 03:26:36;;;;;;;5.45;1.73;;;3.60;99.90;;;;;;5073593;28;20056;-65
2023/01/03 03:29:07;;;;;;;6.40;2.20;;;3.50;99.90;;;;;;5073592;28;20054;-64
2023/01/03 03:31:40;;;;;;;6.35;2.10;;;3.50;99.90;;;;;;5072957;28;20036;-65
2023/01/03 03:34:17;;;;;;;11.68;2.75;;;3.50;99.90;;;;;;5055469;28;20116;-65
2023/01/03 03:36:48;;;;;;;5.65;2.22;;;3.50;99.90;;;;;;5073758;28;20079;-65
2023/01/03 03:46:06;;;;;;;6.70;2.55;;;3.50;99.90;;;;;;5054401;28;20048;-65
2023/01/03 03:51:35;;;;;;;6.90;2.40;;;3.50;99.90;;;;;;5054859;28;20393;-65
2023/01/03 03:54:05;;;;;;;6.65;2.40;;;3.50;99.90;;;;;;5055196;28;20044;-65
2023/01/03 03:56:35;;;;;;;7.82;2.20;;;3.50;99.90;;;;;;5054281;28;20089;-65
2023/01/03 03:59:05;;;;;;;7.55;2.42;;;3.50;99.90;;;;;;5072018;28;20044;-65
2023/01/03 04:01:34;;;;;;;6.18;2.40;;;3.50;99.90;;;;;;5038588;28;20048;-65
2023/01/03 04:04:06;;;;;;;5.53;2.08;;;3.50;99.90;;;;;;5054934;28;20040;-65
2023/01/03 04:06:44;;;;;;;5.32;2.38;;;3.50;99.90;;;;;;5037755;28;20469;-65
2023/01/03 04:09:10;;;;;;;5.80;2.60;;;3.60;99.90;;;;;;5072690;28;20037;-65
2023/01/03 04:11:36;;;;;;;8.32;2.28;;;3.60;99.90;;;;;;5072782;28;20489;-65
2023/01/03 04:14:02;;;;;;;6.18;2.25;;;3.60;99.90;;;;;;5054243;28;20059;-65
2023/01/03 04:16:27;;;;;;;5.32;2.67;;;3.60;99.90;;;;;;5072876;28;20485;-65
2023/01/03 04:18:53;;;;;;;5.75;2.15;;;3.70;99.90;;;;;;5038197;28;20044;-65
2023/01/03 04:21:18;;;;;;;8.30;2.03;;;3.70;99.90;;;;;;5053916;28;20067;-65
2023/01/03 04:23:44;;;;;;;7.90;2.08;;;3.70;99.90;;;;;;5072532;28;20098;-65
2023/01/03 04:26:10;;;;;;;6.65;2.63;;;3.70;99.90;;;;;;5070177;28;20102;-65
2023/01/03 04:28:39;;;;;;;6.97;2.85;;;3.70;99.90;;;;;;5054762;28;20086;-65
2023/01/03 04:31:04;;;;;;;9.05;3.03;;;3.70;99.90;;;;;;5037792;28;20044;-65
2023/01/03 04:33:30;;;;;;;10.98;2.22;;;3.70;99.90;;;;;;5071641;28;20122;-65
2023/01/03 04:35:56;;;;;;;9.38;3.45;;;3.60;99.90;;;;;;5072404;28;20052;-65
2023/01/03 04:38:21;;;;;;;9.05;2.78;;;3.60;99.90;;;;;;5072292;28;20568;-65
2023/01/03 04:40:47;;;;;;;9.30;3.10;;;3.70;99.90;;;;;;5070186;28;20044;-65
2023/01/03 04:45:57;;;;;;;7.75;2.83;;;3.70;99.90;;;;;;5054250;28;20123;-65
2023/01/03 04:48:23;;;;;;;9.23;4.13;;;3.70;99.90;;;;;;5071419;28;20116;-65
2023/01/03 04:50:58;;;;;;;7.32;3.30;;;3.70;99.90;;;;;;5072096;28;20032;-65
2023/01/03 04:53:26;;;;;;;7.70;3.03;;;3.70;99.90;;;;;;5037666;28;20048;-65
2023/01/03 04:55:52;;;;;;;9.95;3.50;;;3.70;99.90;;;;;;5053255;28;20040;-65
2023/01/03 04:58:19;;;;;;;9.05;3.63;;;3.80;99.90;;;;;;5054281;28;20120;-65
2023/01/03 05:00:45;;;;;;;9.00;4.03;;;3.70;99.90;;;;;;5054109;28;20079;-65
2023/01/03 05:03:11;;;;;;;7.97;3.42;;;3.80;99.90;;;;;;5053058;28;20044;-65
2023/01/03 05:05:37;;;;;;;10.68;3.58;;;3.80;99.90;;;;;;5054356;28;20074;-65
2023/01/03 05:08:08;;;;;;;11.65;3.70;;;3.80;99.90;;;;;;5071619;28;20064;-65
2023/01/03 05:10:36;;;;;;;7.20;3.78;;;3.80;99.90;;;;;;5071568;28;20041;-65
2023/01/03 05:13:02;;;;;;;9.00;3.22;;;3.80;99.90;;;;;;5053981;28;20052;-65
2023/01/03 05:15:33;;;;;;;5.53;3.17;;;3.90;99.90;;;;;;5053312;28;20047;-65
2023/01/03 05:17:59;;;;;;;8.02;3.25;;;3.90;99.90;;;;;;5071886;28;20402;-65
2023/01/03 05:26:04;;;;;;;9.50;3.90;;;3.90;99.90;;;;;;5053704;28;20084;-65
2023/01/03 05:28:30;;;;;;;6.47;3.35;;;3.90;99.90;;;;;;5054247;28;20071;-65
2023/01/03 05:30:59;;;;;;;8.35;4.10;;;3.90;99.90;;;;;;5053003;28;20489;-65
2023/01/03 05:33:25;;;;;;;7.07;3.50;;;3.90;99.90;;;;;;5071884;28;20044;-65
2023/01/03 05:35:51;;;;;;;8.82;4.03;;;3.90;99.90;;;;;;5053735;28;20049;-65
2023/01/03 05:38:17;;;;;;;6.25;3.45;;;3.90;99.90;;;;;;5053075;28;20051;-65
2023/01/03 05:40:42;;;;;;;8.90;3.83;;;3.90;99.90;;;;;;5070357;28;20481;-65
2023/01/03 05:43:08;;;;;;;8.68;4.13;;;3.90;99.90;;;;;;5053803;28;20052;-65
2023/01/03 05:45:35;;;;;;;8.93;4.22;;;3.90;99.90;;;;;;5069823;28;20068;-65
2023/01/03 05:48:01;;;;;;;9.30;4.07;;;3.80;99.90;;;;;;5071589;28;20090;-65
2023/01/03 05:50:27;;;;;;;8.93;4.20;;;3.90;99.90;;;;;;5053851;28;20049;-65
2023/01/03 05:52:52;;;;;;;9.32;4.82;;;3.80;99.90;;;;;;5069697;28;20044;-65
2023/01/03 05:55:18;;;;;;;9.32;4.35;;;3.80;99.90;;;;;;5053529;28;20041;-65
2023/01/03 05:57:46;;;;;;;9.10;4.55;;;3.80;99.90;;;;;;5069316;28;20040;-65
2023/01/03 06:00:12;;;;;;;9.82;4.68;;;3.80;99.90;;;;;;5053236;28;20116;-65
2023/01/03 06:02:38;;;;;;;9.10;5.00;;;3.80;99.90;;;;;;5072114;28;20046;-65
2023/01/03 06:05:05;;;;;;;12.32;5.03;;;3.80;99.90;;;;;;5070308;28;20482;-65
2023/01/03 06:07:32;;;;;;;13.52;5.78;;;3.80;99.90;;;;;;5053439;28;20068;-65
2023/01/03 06:09:59;;;;;;;9.18;4.32;;;3.70;99.90;;;;;;5053676;28;20119;-65
2023/01/03 06:12:28;;;;;;;8.70;5.05;;;3.70;99.90;;;;;;5035746;28;20089;-65
2023/01/03 06:14:54;;;;;;;10.18;5.22;;;3.70;99.90;;;;;;5071487;28;20048;-65
2023/01/03 06:20:04;;;;;;;9.32;5.57;;;3.60;99.90;;;;;;5055621;28;20090;-65
2023/01/03 06:22:30;;;;;;;11.13;6.32;;;3.60;99.90;;;;;;5073672;28;20099;-65
2023/01/03 06:24:56;;;;;;;13.15;6.85;;;3.60;99.90;;;;;;5073494;28;20028;-65
2023/01/03 06:27:22;;;;;;;10.95;6.35;;;3.50;99.90;;;;;;5072463;28;20048;-65
2023/01/03 06:29:47;;;;;;;11.70;6.72;;;3.50;99.90;;;;;;5057038;28;20439;-65
2023/01/03 06:32:13;;;;;;;15.00;8.05;;;3.50;99.90;;;;;;5056989;28;20037;-65
2023/01/03 06:34:39;;;;;;;11.07;7.35;;;3.50;99.90;;;;;;5074256;28;20040;-65
2023/01/03 06:37:04;;;;;;;14.23;7.53;;;3.40;99.90;;;;;;5072986;28;20044;-65
2023/01/03 06:39:32;;;;;;;14.95;7.78;;;3.40;99.90;;;;;;5074636;28;20037;-65
2023/01/03 06:42:38;;;;;;;15.88;9.40;;;3.30;99.90;;;;;;5073900;28;20040;-65
2023/01/03 06:53:10;;;;;;;14.57;8.70;;;3.30;99.90;;;;;;5074254;28;20044;-65
2023/01/03 06:53:13;;;;;;;13.95;8.85;;;3.30;99.90;;;;;;5056314;28;20037;-65
2023/01/03 06:55:40;;;;;;;18.90;9.65;;;3.20;99.90;;;;;;5056138;28;20427;-65
2023/01/03 06:58:06;;;;;;;15.20;9.05;;;3.20;99.90;;;;;;5073980;28;20037;-65
2023/01/03 07:00:32;;;;;;;17.98;10.68;;;3.20;99.90;;;;;;5056684;28;20202;-65
2023/01/03 07:02:57;;;;;;;22.02;10.65;;;3.20;99.90;;;;;;5055514;28;20032;-65
2023/01/03 07:05:23;;;;;;;17.50;9.65;;;3.10;99.90;;;;;;5074121;28;20534;-65
2023/01/03 07:07:49;;;;;;;23.98;12.88;;;3.10;99.90;;;;;;5073878;28;20493;-65
2023/01/03 07:10:14;;;;;;;19.45;11.90;;;3.10;99.90;;;;;;5073093;28;20075;-65
2023/01/03 07:15:24;;;;;;;20.45;11.75;;;3.10;99.90;;;;;;5073190;28;20044;-65
2023/01/03 07:17:50;;;;;;;19.17;11.70;;;3.10;99.90;;;;;;5066151;28;20044;-65
2023/01/03 07:20:16;;;;;;;19.20;12.90;;;3.10;99.90;;;;;;5065343;28;20390;-65
2023/01/03 07:22:41;;;;;;;19.75;12.15;;;3.10;99.90;;;;;;5054988;28;20045;-65
2023/01/03 07:25:07;;;;;;;20.23;12.73;;;3.00;99.90;;;;;;5073759;28;20040;-65
2023/01/03 07:27:33;;;;;;;22.83;12.48;;;3.00;99.90;;;;;;5072338;28;20130;-65
2023/01/03 07:29:59;;;;;;;22.13;12.85;;;3.00;99.90;;;;;;5050016;28;20040;-64
2023/01/03 07:32:25;;;;;;;19.58;11.55;;;2.90;99.90;;;;;;5055597;28;20051;-64
2023/01/03 07:34:51;;;;;;;20.95;12.05;;;2.90;99.90;;;;;;5038809;28;20040;-65
2023/01/03 07:37:16;;;;;;;21.88;13.50;;;2.90;99.90;;;;;;5054979;28;20119;-65
2023/01/03 07:39:42;;;;;;;22.05;13.27;;;2.90;99.90;;;;;;5043125;28;20036;-65
2023/01/03 07:44:52;;;;;;;23.77;13.02;;;2.90;99.90;;;;;;5038629;28;20049;-65
2023/01/03 07:47:18;;;;;;;20.05;12.70;;;2.90;99.90;;;;;;5069747;28;20098;-65
2023/01/03 07:49:43;;;;;;;21.95;13.40;;;2.90;99.90;;;;;;5050996;28;20448;-65
2023/01/03 07:52:09;;;;;;;22.15;13.98;;;2.90;99.90;;;;;;5065022;28;20477;-65
2023/01/03 07:54:34;;;;;;;19.95;13.10;;;2.90;99.90;;;;;;5036627;28;20090;-64
2023/01/03 07:57:00;;;;;;;21.23;13.77;;;2.90;99.90;;;;;;5064324;28;20070;-65
2023/01/03 07:59:26;;;;;;;22.38;13.93;;;2.80;99.90;;;;;;5066552;28;20089;-65
2023/01/03 08:01:51;;;;;;;24.15;14.77;;;2.80;99.90;;;;;;5054937;28;20036;-64
2023/01/03 08:04:17;;;;;;;25.40;15.77;;;2.80;99.90;;;;;;5058459;28;20114;-63
2023/01/03 08:06:43;;;;;;;24.55;12.88;;;2.80;99.90;;;;;;5058262;28;20132;-63
2023/01/03 08:14:36;;;;;;;24.90;14.27;;;2.90;99.90;;;;;;5069885;28;20136;-63
2023/01/03 08:17:02;;;;;;;23.02;14.43;;;2.90;99.90;;;;;;5052096;28;20135;-64
2023/01/03 08:19:28;;;;;;;25.15;14.15;;;2.90;99.90;;;;;;5051426;28;20146;-64
2023/01/03 08:21:53;;;;;;;21.15;14.05;;;2.90;99.90;;;;;;5070121;28;20070;-64
2023/01/03 08:24:19;;;;;;;23.58;14.40;;;2.90;99.90;;;;;;5069698;28;20084;-64
2023/01/03 08:26:45;;;;;;;22.63;13.57;;;2.90;99.90;;;;;;5068451;28;20052;-64
2023/01/03 08:29:10;;;;;;;21.65;13.55;;;3.00;99.90;;;;;;5052951;28;20475;-64
2023/01/03 08:31:41;;;;;;;22.13;12.55;;;3.00;99.90;;;;;;5051838;28;20115;-64
2023/01/03 08:34:09;;;;;;;23.08;15.02;;;3.00;99.90;;;;;;5050841;28;20028;-64
2023/01/03 08:36:39;;;;;;;25.92;14.80;;;3.00;99.90;;;;;;5051711;28;20075;-64
2023/01/03 08:39:07;;;;;;;24.60;15.38;;;3.10;99.90;;;;;;5068439;28;20055;-64
2023/01/03 08:41:40;;;;;;;25.40;14.63;;;3.10;99.90;;;;;;5067713;28;20090;-64
2023/01/03 08:44:09;;;;;;;25.17;15.50;;;3.10;99.90;;;;;;5034353;28;20032;-64
2023/01/03 08:46:39;;;;;;;25.65;15.80;;;3.10;99.90;;;;;;5067958;28;20793;-65
2023/01/03 08:49:06;;;;;;;25.13;16.42;;;3.10;99.90;;;;;;5030809;28;20041;-65
2023/01/03 08:51:32;;;;;;;32.05;18.38;;;3.10;99.90;;;;;;5036228;28;20877;-64
2023/01/03 08:53:58;;;;;;;29.73;18.05;;;3.20;99.90;;;;;;5068054;28;20029;-64
2023/01/03 08:56:23;;;;;;;32.10;17.00;;;3.20;99.90;;;;;;5055088;28;20063;-64
2023/01/03 08:58:49;;;;;;;25.60;15.57;;;3.20;99.90;;;;;;5039193;28;20120;-64
2023/01/03 09:01:15;;;;;;;28.33;17.58;;;3.20;99.90;;;;;;5067353;28;20123;-64
2023/01/03 09:03:41;;;;;;;29.08;16.80;;;3.30;99.90;;;;;;5055726;28;20045;-64
2023/01/03 09:06:07;;;;;;;27.17;15.27;;;3.20;99.90;;;;;;5069021;28;20106;-64
2023/01/03 09:08:33;;;;;;;26.10;16.85;;;3.30;99.90;;;;;;5055793;28;20488;-64
2023/01/03 09:11:04;;;;;;;24.02;15.40;;;3.20;99.90;;;;;;5060593;28;20040;-64
2023/01/03 09:13:29;;;;;;;24.15;15.75;;;3.30;99.90;;;;;;5051338;28;20052;-64
2023/01/03 09:16:03;;;;;;;24.65;15.75;;;3.20;99.90;;;;;;5038151;28;20047;-64
2023/01/03 09:18:28;;;;;;;26.00;16.00;;;3.20;99.90;;;;;;5066637;28;20096;-64
2023/01/03 09:20:54;;;;;;;22.27;13.90;;;3.20;99.90;;;;;;5052575;28;20072;-64
2023/01/03 09:23:20;;;;;;;26.60;13.50;;;3.10;99.90;;;;;;5051243;28;20128;-64
2023/01/03 09:25:46;;;;;;;23.42;13.05;;;3.00;99.90;;;;;;5068587;28;20048;-63
2023/01/03 09:28:12;;;;;;;22.73;14.10;;;3.00;99.90;;;;;;5067508;28;20037;-63
2023/01/03 09:30:37;;;;;;;23.98;14.88;;;3.00;99.90;;;;;;5057373;28;20036;-63
2023/01/03 09:33:03;;;;;;;20.88;14.60;;;3.00;99.90;;;;;;5064505;28;20047;-63
2023/01/03 09:35:30;;;;;;;23.25;14.50;;;3.00;99.90;;;;;;5050166;28;20537;-63
2023/01/03 09:37:56;;;;;;;26.88;16.08;;;3.00;99.90;;;;;;5067350;28;20106;-63
2023/01/03 09:40:22;;;;;;;24.83;13.68;;;3.00;99.90;;;;;;5068303;28;20484;-63
2023/01/03 09:45:34;;;;;;;;;;;3.10;99.90;;;;;;5055491;28;20045;-63
2023/01/03 09:48:02;;;;;;;27.65;13.95;;;3.10;99.90;;;;;;5069322;28;19920;-65
2023/01/03 09:50:32;;;;;;;24.10;14.07;;;3.10;99.90;;;;;;5066269;28;20080;-64
2023/01/03 10:03:42;;;;;;;24.63;13.68;;;3.10;99.90;;;;;;5064327;28;20506;-64
2023/01/03 10:05:07;;;;;;;32.17;15.63;;;3.10;99.90;;;;;;5050747;28;20055;-64
2023/01/03 10:08:00;;;;;;;28.60;15.63;;;3.20;99.90;;;;;;5053091;28;20097;-64
2023/01/03 10:10:37;;;;;;;35.72;15.80;;;3.20;99.90;;;;;;5065587;28;20125;-64
2023/01/03 10:13:06;;;;;;;31.27;16.13;;;3.20;99.90;;;;;;5063468;28;20041;-64
2023/01/03 10:16:04;;;;;;;26.58;15.40;;;3.20;99.90;;;;;;5065423;28;20465;-64
2023/01/03 10:18:32;;;;;;;28.38;15.73;;;3.30;99.90;;;;;;5053417;28;20044;-64
2023/01/03 10:21:15;;;;;;;29.08;16.85;;;3.30;99.90;;;;;;5054749;28;20081;-64
2023/01/03 10:23:42;;;;;;;43.55;18.95;;;3.30;99.90;;;;;;5071868;28;20063;-64
2023/01/03 10:26:10;;;;;;;49.65;20.98;;;3.30;99.90;;;;;;5069552;28;20113;-64
2023/01/03 10:28:41;;;;;;;42.10;19.80;;;3.40;99.90;;;;;;5056319;28;20044;-64
2023/01/03 10:31:19;;;;;;;34.28;20.27;;;3.40;99.90;;;;;;5063995;28;20041;-64
2023/01/03 10:33:47;;;;;;;48.95;21.60;;;3.40;99.90;;;;;;5061236;28;20500;-64
2023/01/03 10:36:15;;;;;;;53.13;20.77;;;3.50;99.90;;;;;;5072897;28;20047;-64
2023/01/03 10:38:43;;;;;;;53.80;20.38;;;3.50;99.90;;;;;;5065150;28;20032;-64
2023/01/03 10:41:56;;;;;;;52.15;23.13;;;3.60;99.90;;;;;;5053219;28;20040;-63
2023/01/03 10:44:26;;;;;;;68.50;25.45;;;3.60;99.90;;;;;;4981388;28;20130;-64
2023/01/03 10:46:54;;;;;;;54.80;25.83;;;3.70;99.90;;;;;;5036952;28;20079;-64
2023/01/03 10:49:24;;;;;;;73.78;27.50;;;3.70;99.90;;;;;;5056703;28;20067;-63
2023/01/03 10:52:08;;;;;;;53.88;27.17;;;3.80;99.90;;;;;;5063187;28;20528;-63
2023/01/03 10:54:39;;;;;;;50.72;24.27;;;3.90;99.90;;;;;;5073675;28;20036;-61
2023/01/03 10:57:05;;;;;;;57.75;26.88;;;3.90;99.90;;;;;;5073942;28;20101;-62
2023/01/03 10:59:31;;;;;;;53.75;24.23;;;4.00;99.90;;;;;;5074237;28;20032;-62
2023/01/03 11:02:13;;;;;;;51.50;26.45;;;4.10;99.90;;;;;;5072588;28;20071;-64
2023/01/03 11:04:39;;;;;;;52.20;28.05;;;4.20;99.90;;;;;;5055870;28;20051;-62
2023/01/03 11:07:10;;;;;;;51.30;27.17;;;4.30;99.90;;;;;;5053218;28;20059;-63
2023/01/03 11:09:56;;;;;;;61.60;30.85;;;4.40;99.90;;;;;;5069474;28;20076;-62
2023/01/03 11:12:43;;;;;;;47.35;27.75;;;4.50;99.90;;;;;;5036501;28;20045;-62
2023/01/03 11:15:19;;;;;;;51.47;28.05;;;4.50;99.90;;;;;;5052870;28;20052;-62
2023/01/03 11:17:52;;;;;;;56.45;28.27;;;4.60;99.90;;;;;;5053310;28;20048;-62
2023/01/03 11:20:18;;;;;;;55.17;29.48;;;4.60;99.90;;;;;;5051539;28;20044;-62
2023/01/03 11:22:54;;;;;;;50.78;27.45;;;4.70;99.90;;;;;;5069586;28;20048;-62
2023/01/03 11:25:45;;;;;;;48.97;25.20;;;4.80;99.90;;;;;;5070591;28;20037;-62
2023/01/03 11:28:30;;;;;;;54.30;28.75;;;4.90;99.90;;;;;;5056035;28;20052;-62
2023/01/03 11:31:14;;;;;;;45.45;27.45;;;4.90;99.90;;;;;;5053575;28;20044;-62
2023/01/03 11:33:58;;;;;;;45.97;26.80;;;5.00;99.90;;;;;;5070234;28;20048;-62
2023/01/03 11:36:37;;;;;;;50.33;28.58;;;5.00;99.90;;;;;;5069426;28;20102;-62
2023/01/03 11:39:40;;;;;;;53.70;27.48;;;5.10;99.90;;;;;;5069701;28;20036;-63
2023/01/03 11:42:20;;;;;;;51.28;28.20;;;5.10;99.90;;;;;;5052180;28;20601;-62
2023/01/03 11:45:10;;;;;;;50.17;28.63;;;5.20;99.90;;;;;;5043449;28;20492;-62
2023/01/03 11:48:07;;;;;;;54.88;29.63;;;5.20;99.90;;;;;;5084581;28;20044;-62
2023/01/03 11:50:52;;;;;;;48.40;27.58;;;5.30;99.90;;;;;;5069462;28;20040;-62
2023/01/03 11:53:34;;;;;;;52.60;28.98;;;5.30;99.90;;;;;;5062704;28;20053;-63
2023/01/03 11:56:37;;;;;;;55.65;30.27;;;5.30;99.90;;;;;;5071134;28;20528;-63
2023/01/03 11:59:32;;;;;;;49.28;28.15;;;5.30;99.90;;;;;;5045517;28;20127;-63
2023/01/03 12:02:28;;;;;;;53.42;28.45;;;5.30;99.90;;;;;;5070008;28;20048;-62
2023/01/03 12:05:15;;;;;;;49.72;31.15;;;5.40;99.90;;;;;;5051449;28;20493;-62
2023/01/03 12:07:50;;;;;;;51.58;28.88;;;5.40;99.90;;;;;;5052001;28;20079;-62
2023/01/03 12:10:23;;;;;;;51.65;30.80;;;5.50;99.90;;;;;;5049528;28;20090;-63
2023/01/03 12:13:10;;;;;;;56.58;30.92;;;5.50;99.90;;;;;;5051608;28;20045;-62
2023/01/03 12:15:55;;;;;;;56.63;31.60;;;5.50;99.90;;;;;;5069610;28;20036;-62
2023/01/03 12:18:51;;;;;;;56.33;32.35;;;5.50;99.90;;;;;;5050654;28;20544;-63
2023/01/03 12:21:37;;;;;;;55.95;31.77;;;5.60;99.90;;;;;;5047889;28;20045;-62
2023/01/03 12:24:33;;;;;;;47.92;31.02;;;5.50;99.90;;;;;;5041316;28;20045;-63
2023/01/03 12:27:16;;;;;;;54.38;32.90;;;5.60;99.90;;;;;;5016899;28;20052;-63
2023/01/03 12:29:52;;;;;;;56.55;32.10;;;5.70;99.90;;;;;;5058690;28;20535;-62
2023/01/03 12:32:27;;;;;;;54.88;32.30;;;5.70;99.90;;;;;;5052293;28;20087;-62
2023/01/03 12:35:09;;;;;;;54.97;29.45;;;5.70;99.90;;;;;;5068917;28;20094;-63
2023/01/03 12:37:39;;;;;;;52.60;31.88;;;5.80;99.90;;;;;;5068720;28;20054;-62
2023/01/03 12:40:32;;;;;;;46.10;27.77;;;5.80;99.90;;;;;;5067620;28;20050;-63
2023/01/03 12:43:13;;;;;;;50.30;31.20;;;5.90;99.90;;;;;;5034734;28;20067;-62
2023/01/03 12:45:50;;;;;;;49.83;29.15;;;5.90;99.90;;;;;;5051047;28;20036;-62
2023/01/03 12:48:25;;;;;;;40.60;25.48;;;5.90;99.90;;;;;;5051361;28;20047;-62
2023/01/03 12:50:51;;;;;;;46.90;26.50;;;6.00;99.90;;;;;;5051740;28;20037;-62
2023/01/03 12:53:46;;;;;;;47.30;28.27;;;6.00;99.90;;;;;;5068314;28;20043;-62
2023/01/03 12:56:33;;;;;;;42.58;24.83;;;6.10;99.90;;;;;;5069027;28;20067;-62
2023/01/03 12:59:27;;;;;;;44.17;25.73;;;6.10;99.90;;;;;;5068286;28;20044;-62
2023/01/03 13:01:59;;;;;;;46.35;25.75;;;6.10;99.90;;;;;;5030471;28;20052;-62
2023/01/03 13:04:34;;;;;;;46.40;26.73;;;6.20;99.90;;;;;;5051430;28;20048;-62
2023/01/03 13:07:13;;;;;;;46.42;25.27;;;6.20;99.90;;;;;;5067876;28;20121;-62
2023/01/03 13:09:48;;;;;;;45.03;23.95;;;6.30;99.90;;;;;;5067671;28;20319;-62
2023/01/03 13:12:27;;;;;;;42.30;23.00;;;6.30;99.90;;;;;;5069279;28;20170;-62
2023/01/03 13:14:54;;;;;;;40.90;23.92;;;6.40;99.90;;;;;;5068471;28;20166;-62
2023/01/03 13:17:25;;;;;;;41.03;23.38;;;6.30;99.90;;;;;;5051674;28;20052;-62
2023/01/03 13:19:55;;;;;;;38.63;22.48;;;6.40;99.90;;;;;;5050826;28;20093;-62
2023/01/03 13:22:27;;;;;;;31.88;19.83;;;6.40;99.90;;;;;;5068809;28;20401;-64
2023/01/03 13:24:53;;;;;;;38.17;22.00;;;6.50;99.90;;;;;;5069268;28;20080;-63
2023/01/03 13:27:24;;;;;;;33.70;19.92;;;6.50;99.90;;;;;;5067395;28;20517;-64
2023/01/03 13:29:57;;;;;;;37.33;21.05;;;6.50;99.90;;;;;;5072756;28;20041;-63
2023/01/03 13:32:22;;;;;;;33.83;20.83;;;6.50;99.90;;;;;;5056643;28;20040;-63
2023/01/03 13:34:57;;;;;;;32.53;19.73;;;6.50;99.90;;;;;;5038074;28;20082;-64
2023/01/03 13:37:41;;;;;;;30.52;19.65;;;6.60;99.90;;;;;;5071951;28;20044;-64
2023/01/03 13:40:24;;;;;;;32.67;20.83;;;6.60;99.90;;;;;;5072489;28;20863;-63
2023/01/03 13:43:26;;;;;;;30.95;18.42;;;6.60;99.90;;;;;;5054501;28;20040;-63
2023/01/03 13:45:55;;;;;;;35.20;19.02;;;6.60;99.90;;;;;;5021046;28;20114;-63
2023/01/03 13:48:26;;;;;;;31.00;20.52;;;6.60;99.90;;;;;;5063358;28;20090;-63
2023/01/03 13:51:13;;;;;;;35.30;20.73;;;6.70;99.90;;;;;;5062050;28;20091;-63
2023/01/03 13:53:53;;;;;;;30.05;18.50;;;6.70;99.90;;;;;;5055425;28;20051;-63
2023/01/03 13:56:28;;;;;;;32.05;19.05;;;6.70;99.90;;;;;;5024838;28;20493;-63
2023/01/03 13:59:00;;;;;;;33.53;20.30;;;6.80;99.90;;;;;;5049423;28;20049;-63
2023/01/03 14:01:59;;;;;;;35.42;20.10;;;6.80;99.90;;;;;;5048206;28;20091;-63
2023/01/03 14:04:54;;;;;;;35.00;19.25;;;6.80;99.90;;;;;;5053967;28;20049;-63
2023/01/03 14:07:32;;;;;;;35.88;20.42;;;6.80;99.90;;;;;;5070671;28;20044;-63
2023/01/03 14:10:12;;;;;;;35.80;20.45;;;6.80;99.90;;;;;;5061325;28;20389;-63
2023/01/03 14:13:12;;;;;;;34.40;19.92;;;6.90;99.90;;;;;;5054910;28;20154;-63
2023/01/03 14:15:38;;;;;;;44.33;22.95;;;6.90;99.90;;;;;;5059528;28;20041;-63